Latest Weather Observations for Temora

IDN60801

Issued at 3:23 am EDT Friday 29 January 2021 (issued every 10 minutes, with the page automatically refreshed every 10 minutes)

About weather observations | Map of weather stations | Latest weather observations for NSW | Other Formats
Station Details ID: 073151 Name: TEMORA AIRPORT Lat: -34.43 Lon: 147.51 Height: 280.5 m
Data from the previous 72 hours. | See also: Recent months at Temora
Date/Time
EDT
Temp
°C
App
Temp
°C
Dew
Point
°C
Rel
Hum
%
Delta-T
°C
Wind Press
QNH
hPa
Press
MSL
hPa
Rain since
9am
mm
Dir  Spd
km/h
Gust
km/h
Spd
kts
Gust
kts
29/03:00am 15.7 11.8 14.4 92 0.7 ENE 28 39 15 21 1015.9 1014.3 46.8
29/02:30am 15.4 11.5 14.3 93 0.6 ENE 28 39 15 21 1016.0 1014.4 46.6
29/02:00am 15.3 11.3 14.0 92 0.7 ENE 28 41 15 22 1016.5 1014.9 46.2
29/01:30am 15.3 10.8 13.8 91 0.9 ENE 30 41 16 22 1017.4 1015.8 46.0
29/01:00am 15.3 12.3 13.8 91 0.9 ENE 22 33 12 18 1018.3 1016.7 45.8
29/12:30am 15.3 10.8 13.8 91 0.9 ENE 30 39 16 21 1018.2 1016.6 45.4
29/12:00am 15.2 11.5 13.9 92 0.7 ENE 26 35 14 19 1018.6 1017.0 44.4
 
Date/Time
EDT
Temp
°C
App
Temp
°C
Dew
Point
°C
Rel
Hum
%
Delta-T
°C
Wind Press
QNH
hPa
Press
MSL
hPa
Rain since
9am
mm
Dir  Spd
km/h
Gust
km/h
Spd
kts
Gust
kts
28/11:30pm 15.3 11.5 13.7 90 0.9 ENE 26 41 14 22 1019.0 1017.4 43.6
28/11:18pm 15.3 11.2 13.7 90 0.9 ENE 28 46 15 25 1018.7 1017.1 43.2
28/11:00pm 15.4 10.5 13.6 89 1.0 ENE 32 43 17 23 1018.4 1016.9 42.6
28/10:30pm 15.4 10.5 13.6 89 1.0 E 32 44 17 24 1018.9 1017.3 42.2
28/10:00pm 15.5 11.4 13.9 90 0.9 E 28 41 15 22 1019.3 1017.7 41.4
28/09:30pm 15.7 11.2 13.7 88 1.1 E 30 46 16 25 1018.8 1017.2 40.8
28/09:00pm 16.0 11.5 13.8 87 1.3 E 30 46 16 25 1018.8 1017.2 40.4
28/08:39pm 16.1 11.6 13.9 87 1.3 E 30 50 16 27 1018.8 1017.2 40.0
28/08:30pm 16.1 11.6 13.9 87 1.3 E 30 43 16 23 1018.9 1017.3 39.8
28/08:26pm 16.0 12.0 14.0 88 1.1 E 28 46 15 25 1018.8 1017.2 39.8
28/08:00pm 15.8 11.1 14.3 91 0.9 E 32 46 17 25 1018.2 1016.6 39.6
28/07:43pm 15.6 11.3 14.5 93 0.6 E 30 48 16 26 1018.0 1016.4 39.6
28/07:30pm 15.6 11.5 14.8 95 0.5 E 30 41 16 22 1017.9 1016.3 39.2
28/07:00pm 15.7 13.0 14.6 93 0.6 ESE 22 32 12 17 1018.7 1017.1 34.0
28/06:30pm 16.1 12.7 14.8 92 0.8 ESE 26 33 14 18 1017.7 1016.1 32.0
28/06:00pm 16.4 11.9 14.9 91 0.9 ESE 32 46 17 25 1017.4 1015.8 29.6
28/05:30pm 16.8 12.7 15.0 89 1.1 E 30 44 16 24 1017.1 1015.5 28.4
28/05:09pm 16.7 13.1 15.2 91 0.9 E 28 46 15 25 1017.3 1015.7 28.4
28/05:00pm 16.8 12.7 15.0 89 1.1 E 30 44 16 24 1017.4 1015.8 28.2
28/04:30pm 17.2 12.7 14.8 86 1.4 E 32 44 17 24 1017.4 1015.8 27.6
28/04:00pm 16.7 12.8 15.4 92 0.8 E 30 43 16 23 1017.4 1015.8 27.6
28/03:39pm 16.4 11.9 15.3 93 0.6 E 33 52 18 28 1017.4 1015.8 27.6
28/03:30pm 16.4 11.5 15.4 94 0.6 E 35 46 19 25 1017.3 1015.7 27.6
28/03:02pm 16.6 12.4 15.6 94 0.6 E 32 50 17 27 1017.7 1016.1 27.2
28/03:00pm 16.6 12.7 15.6 94 0.6 E 30 41 16 22 1017.8 1016.2 27.2
28/02:30pm 16.6 13.7 16.0 96 0.4 E 26 39 14 21 1018.2 1016.6 26.6
28/02:00pm 16.4 10.0 15.4 94 0.6 E 43 61 23 33 1018.4 1016.9 25.4
28/01:51pm 16.7 10.3 15.4 92 0.8 ENE 43 61 23 33 1018.3 1016.7 21.0
28/01:30pm 16.9 12.9 16.1 95 0.5 ESE 32 46 17 25 1019.3 1017.7 18.8
28/01:00pm 16.9 15.3 16.4 97 0.3 SE 20 32 11 17 1019.8 1018.2 16.4
28/12:30pm 17.2 16.0 16.2 94 0.6 SSE 17 20 9 11 1020.1 1018.5 11.0
28/12:00pm 17.5 15.8 16.2 92 0.8 SE 20 33 11 18 1019.5 1017.9 9.6
28/11:30am 18.9 17.2 14.6 76 2.5 E 17 26 9 14 1019.6 1018.0 2.2
28/11:00am 21.2 17.0 13.6 62 4.4 E 28 41 15 22 1018.2 1016.6 0.2
28/10:30am 20.3 17.1 14.2 68 3.6 E 24 39 13 21 1017.5 1015.9 0.2
28/10:13am 20.0 15.7 14.4 70 3.3 E 30 52 16 28 1016.5 1014.9 0.0
28/10:00am 20.0 15.2 13.9 68 3.6 ENE 32 48 17 26 1016.8 1015.2 0.0
28/09:30am 23.0 15.5 12.6 52 6.0 E 44 69 24 37 1016.5 1014.9 0.0
28/09:11am 22.3 14.9 12.5 53 5.6 E 43 61 23 33 1016.0 1014.4 0.0
28/09:00am 21.7 13.7 12.3 55 5.4 E 46 61 25 33 1015.9 1014.3 0.2
28/08:30am 20.8 13.4 12.5 59 4.7 E 43 63 23 34 1016.3 1014.7 0.2
28/08:07am 20.5 14.2 12.2 59 4.7 E 37 59 20 32 1016.2 1014.6 0.2
28/08:00am 20.3 13.6 12.3 60 4.5 E 39 56 21 30 1016.1 1014.5 0.2
28/07:30am 19.7 14.1 12.2 62 4.2 E 33 52 18 28 1016.0 1014.4 0.2
28/07:29am 19.7 14.4 12.5 63 4.1 E 32 52 17 28 1016.0 1014.4 0.2
28/07:00am 19.5 14.3 12.8 65 3.8 E 32 46 17 25 1015.8 1014.2 0.2
28/06:37am 19.4 14.2 12.9 66 3.7 E 32 50 17 27 1015.6 1014.0 0.2
28/06:30am 19.3 13.5 12.8 66 3.7 E 35 50 19 27 1015.4 1013.8 0.2
28/06:02am 19.1 13.9 12.8 67 3.6 E 32 52 17 28 1015.0 1013.3 0.2
28/06:00am 19.1 13.9 12.8 67 3.6 E 32 48 17 26 1015.0 1013.3 0.2
28/05:30am 19.0 13.7 12.5 66 3.7 E 32 54 17 29 1014.6 1013.0 0.2
28/05:24am 18.9 13.5 12.2 65 3.8 E 32 52 17 28 1014.5 1012.9 0.2
28/05:00am 19.2 13.8 12.2 64 3.9 E 32 48 17 26 1014.4 1012.8 0.2
28/04:37am 19.7 14.4 12.5 63 4.1 E 32 50 17 27 1014.3 1012.7 0.2
28/04:30am 19.7 15.2 12.7 64 4.0 E 28 44 15 24 1014.3 1012.7 0.2
28/04:00am 20.0 14.9 13.0 64 4.0 E 32 50 17 27 1014.4 1012.8 0.2
28/03:39am 19.9 15.7 13.6 67 3.7 E 28 46 15 25 1014.5 1012.9 0.2
28/03:30am 19.9 15.0 13.6 67 3.7 E 32 46 17 25 1014.4 1012.8 0.2
28/03:05am 19.8 14.8 14.0 69 3.4 E 33 52 18 28 1014.4 1012.8 0.2
28/03:00am 19.9 14.5 13.8 68 3.5 E 35 52 19 28 1014.3 1012.7 0.2
28/02:46am 19.9 15.4 13.8 68 3.6 E 30 48 16 26 1014.6 1013.0 0.2
28/02:30am 19.9 14.8 13.8 68 3.6 E 33 46 18 25 1014.6 1013.0 0.2
28/02:00am 19.9 14.8 13.8 68 3.5 E 33 48 18 26 1014.5 1012.9 0.2
28/01:30am 19.8 14.8 14.0 69 3.4 E 33 54 18 29 1014.7 1013.1 0.2
28/01:00am 19.8 14.9 13.7 68 3.5 E 32 50 17 27 1015.0 1013.3 0.2
28/12:31am 19.6 14.7 13.8 69 3.4 E 32 50 17 27 1015.0 1013.3 0.2
28/12:30am 19.6 14.7 13.8 69 3.4 E 32 48 17 26 1015.0 1013.3 0.2
28/12:01am 19.6 15.1 13.8 69 3.4 E 30 52 16 28 1014.9 1013.2 0.2
28/12:00am 19.5 15.0 13.9 70 3.3 E 30 43 16 23 1014.9 1013.2 0.2
 
Date/Time
EDT
Temp
°C
App
Temp
°C
Dew
Point
°C
Rel
Hum
%
Delta-T
°C
Wind Press
QNH
hPa
Press
MSL
hPa
Rain since
9am
mm
Dir  Spd
km/h
Gust
km/h
Spd
kts
Gust
kts
27/11:48pm 19.5 14.6 13.7 69 3.4 E 32 50 17 27 1015.1 1013.4 0.2
27/11:30pm 19.7 14.6 13.6 68 3.5 E 33 48 18 26 1015.0 1013.3 0.2
27/11:16pm 19.8 14.6 13.5 67 3.6 E 33 52 18 28 1014.7 1013.1 0.2
27/11:00pm 20.0 14.5 13.5 66 3.8 E 35 52 19 28 1014.6 1013.0 0.2
27/10:46pm 20.2 14.6 13.4 65 3.9 E 35 56 19 30 1014.5 1012.9 0.2
27/10:30pm 20.2 15.5 13.2 64 4.0 E 30 41 16 22 1014.5 1012.9 0.2
27/10:00pm 20.3 14.9 12.8 62 4.3 E 33 50 18 27 1014.3 1012.7 0.2
27/09:35pm 20.5 15.2 12.5 60 4.6 E 32 50 17 27 1013.9 1012.3 0.2
27/09:30pm 20.6 15.1 12.6 60 4.6 E 33 50 18 27 1013.9 1012.3 0.2
27/09:00pm 20.9 15.5 12.1 57 5.0 E 32 54 17 29 1013.5 1011.9 0.2
27/08:31pm 21.3 14.9 11.9 55 5.3 E 37 56 20 30 1013.2 1011.6 0.2
27/08:30pm 21.3 14.5 11.9 55 5.3 E 39 56 21 30 1013.2 1011.6 0.2
27/08:12pm 21.8 16.8 12.1 54 5.5 E 30 48 16 26 1012.9 1011.3 0.2
27/08:00pm 22.3 16.9 12.8 55 5.5 E 33 46 18 25 1012.8 1011.2 0.2
27/07:30pm 23.4 18.5 13.6 54 5.8 E 32 46 17 25 1012.4 1010.8 0.2
27/07:00pm 24.9 19.5 13.8 50 6.6 E 35 46 19 25 1011.9 1010.2 0.2
27/06:30pm 25.8 21.2 14.6 50 6.8 ESE 32 46 17 25 1011.7 1010.0 0.2
27/06:00pm 26.9 23.3 15.3 49 7.1 E 28 39 15 21 1011.4 1009.7 0.2
27/05:30pm 27.8 24.0 15.8 48 7.5 E 30 41 16 22 1010.9 1009.3 0.2
27/05:00pm 28.6 24.8 15.8 45 8.0 E 30 43 16 23 1010.8 1009.2 0.2
27/04:30pm 29.6 26.8 16.4 45 8.3 E 26 37 14 20 1010.9 1009.3 0.2
27/04:00pm 29.5 26.5 16.7 46 8.1 ESE 28 35 15 19 1010.6 1009.0 0.2
27/03:30pm 29.5 26.5 16.7 46 8.1 SE 28 39 15 21 1010.7 1009.1 0.2
27/03:00pm 29.8 28.1 17.3 47 8.0 ESE 22 35 12 19 1010.9 1009.3 0.2
27/02:30pm 29.2 28.1 17.7 50 7.4 ESE 20 32 11 17 1011.3 1009.6 0.2
27/02:00pm 29.3 28.5 18.1 51 7.2 ESE 19 28 10 15 1011.4 1009.7 0.2
27/01:30pm 28.0 26.9 17.2 52 6.9 ESE 19 28 10 15 1011.5 1009.8 0.2
27/01:00pm 27.6 26.4 17.5 54 6.4 ESE 20 26 11 14 1011.6 1009.9 0.2
27/12:30pm 27.0 26.1 17.8 57 5.9 ESE 19 26 10 14 1011.6 1009.9 0.2
27/12:00pm 27.7 27.0 18.7 58 5.8 ESE 20 30 11 16 1011.4 1009.7 0.2
27/11:30am 25.9 25.5 18.8 65 4.6 ESE 19 30 10 16 1011.3 1009.6 0.0
27/11:00am 26.0 25.9 19.6 68 4.2 ESE 19 26 10 14 1011.1 1009.4 0.0
27/10:30am 24.1 24.6 20.0 78 2.7 SE 17 24 9 13 1010.9 1009.3 0.0
27/10:00am 23.9 25.9 21.6 87 1.5 S 13 17 7 9 1010.8 1009.2 0.0
27/09:30am 22.8 24.7 21.3 91 1.0 S 13 17 7 9 1010.7 1009.1 0.0
27/09:00am 21.3 22.8 20.5 95 0.5 S 13 17 7 9 1010.4 1008.8 7.4
27/08:30am 20.4 21.5 19.7 96 0.5 SSW 13 17 7 9 1010.1 1008.5 7.4
27/08:00am 20.2 20.7 19.2 94 0.6 SSW 15 17 8 9 1009.9 1008.3 7.4
27/07:30am 20.5 21.7 20.0 97 0.3 SW 13 15 7 8 1009.5 1007.9 7.4
27/07:00am 20.7 22.3 19.9 95 0.5 SW 11 15 6 8 1009.2 1007.6 7.4
27/06:30am 21.7 24.8 21.0 96 0.5 SSW 6 9 3 5 1008.8 1007.1 7.4
27/06:00am 21.7 24.2 21.0 96 0.5 SSW 9 11 5 6 1008.2 1006.5 7.4
27/05:30am 21.5 24.7 21.2 98 0.2 S 6 9 3 5 1007.8 1006.1 7.4
27/05:00am 21.2 24.1 21.0 99 0.1 SSW 7 11 4 6 1007.4 1005.7 7.4
27/04:30am 20.9 24.3 20.9 100 0.0 SSW 4 7 2 4 1007.0 1005.4 7.4
27/04:00am 20.5 23.5 20.0 97 0.3 SSW 4 6 2 3 1006.8 1005.2 7.4
27/03:30am 20.8 23.3 20.3 97 0.3 S 7 9 4 5 1006.6 1005.0 7.4
27/03:00am 21.3 22.8 20.6 96 0.5 SSW 13 17 7 9 1006.5 1004.9 7.4
27/02:30am 21.8 23.8 21.5 98 0.2 SW 13 20 7 11 1006.5 1004.9 7.4
27/02:00am 21.9 24.4 21.7 99 0.1 SSW 11 15 6 8 1006.2 1004.6 7.4
27/01:30am 22.5 25.8 22.5 100 0.0 S 9 11 5 6 1006.3 1004.7 7.4
27/01:00am 22.5 27.2 22.0 97 0.3 CALM 0 0 0 0 1006.6 1005.0 7.4
27/12:30am 22.8 27.4 21.8 94 0.7 CALM 0 0 0 0 1006.7 1005.1 7.4
27/12:00am 22.7 26.1 22.0 96 0.5 NNE 7 9 4 5 1006.7 1005.1 7.4
 
Date/Time
EDT
Temp
°C
App
Temp
°C
Dew
Point
°C
Rel
Hum
%
Delta-T
°C
Wind Press
QNH
hPa
Press
MSL
hPa
Rain since
9am
mm
Dir  Spd
km/h
Gust
km/h
Spd
kts
Gust
kts
26/11:30pm 22.6 26.5 21.9 96 0.5 NE 4 7 2 4 1006.6 1005.0 7.4
26/11:00pm 22.7 27.0 22.0 96 0.5 E 2 7 1 4 1006.7 1005.1 7.4
26/10:30pm 22.6 27.2 21.8 95 0.5 CALM 0 6 0 3 1006.6 1005.0 7.0
26/10:00pm 22.7 25.7 21.9 95 0.5 ENE 9 11 5 6 1006.4 1004.8 7.0
26/09:30pm 22.5 27.1 21.7 95 0.5 CALM 0 0 0 0 1006.1 1004.5 7.0
26/09:00pm 22.3 25.8 21.8 97 0.3 SE 6 7 3 4 1005.9 1004.3 7.0
26/08:30pm 22.2 25.5 21.9 98 0.2 SSW 7 9 4 5 1005.8 1004.2 7.0
26/08:00pm 22.6 25.8 22.3 98 0.2 SSW 9 13 5 7 1005.4 1003.7 7.0
26/07:30pm 22.6 25.2 21.9 96 0.5 SSW 11 15 6 8 1005.0 1003.3 6.4
26/07:00pm 22.8 25.8 22.0 95 0.5 S 9 13 5 7 1004.6 1002.9 6.2
26/06:30pm 22.5 25.2 22.2 98 0.2 SW 11 13 6 7 1004.4 1002.7 6.2
26/06:00pm 22.8 25.3 21.8 94 0.7 SW 11 17 6 9 1004.2 1002.5 4.2
26/05:30pm 24.8 27.8 21.3 81 2.3 SW 7 9 4 5 1004.0 1002.3 0.6
26/05:00pm 25.5 28.6 21.0 76 3.0 S 6 11 3 6 1003.7 1002.0 0.6
26/04:30pm 25.3 28.6 20.8 76 3.0 WSW 4 7 2 4 1003.9 1002.2 0.6
26/04:00pm 25.2 28.7 21.1 78 2.7 WNW 4 7 2 4 1003.9 1002.2 0.6
26/03:30pm 24.7 27.6 21.8 84 1.9 WSW 9 13 5 7 1004.1 1002.4 0.6
26/03:00pm 24.4 26.7 22.1 87 1.6 WSW 13 19 7 10 1004.1 1002.4 0.6
26/02:30pm 24.0 24.9 20.9 83 2.1 SW 17 22 9 12 1004.0 1002.3 0.2
26/02:00pm 27.4 26.8 18.4 58 5.8 W 19 28 10 15 1003.9 1002.2 0.0
26/01:30pm 29.0 27.9 17.2 49 7.5 WNW 19 26 10 14 1004.0 1002.3 0.0
26/01:00pm 28.4 27.2 17.0 50 7.2 WNW 19 24 10 13 1004.2 1002.5 0.0
26/12:30pm 28.2 26.9 16.8 50 7.2 WNW 19 28 10 15 1004.3 1002.6 0.0
26/12:00pm 27.9 26.6 16.8 50 7.0 WNW 19 26 10 14 1004.3 1002.6 0.0
26/11:30am 27.5 28.5 17.7 55 6.3 WSW 9 13 5 7 1004.0 1002.3 0.0
26/11:00am 27.1 27.0 17.0 54 6.4 WSW 13 19 7 10 1004.2 1002.5 0.0
26/10:30am 27.4 28.6 17.3 54 6.4 ESE 7 11 4 6 1003.8 1002.1 0.0
26/10:00am 26.2 27.3 17.0 57 5.8 SSE 7 11 4 6 1004.0 1002.3 0.0
26/09:30am 25.5 26.1 17.7 62 4.9 SSW 11 15 6 8 1004.3 1002.6 0.0
26/09:00am 27.7 26.2 15.4 47 7.6 SW 17 24 9 13 1004.3 1002.6 0.0
26/08:30am 27.9 24.6 12.7 39 9.0 WSW 22 30 12 16 1004.0 1002.3 0.0
26/08:00am 28.3 26.0 10.5 33 10.2 NW 13 19 7 10 1003.4 1001.8 0.0
26/07:30am 28.0 24.8 11.1 35 9.8 NNW 19 26 10 14 1002.9 1001.3 0.0
26/07:00am 26.9 24.0 11.0 37 9.2 N 17 24 9 13 1002.6 1001.0 0.0
26/06:30am 26.2 22.7 10.8 38 8.8 N 20 28 11 15 1002.3 1000.6 0.0
26/06:00am 26.1 22.5 10.7 38 8.8 N 20 26 11 14 1002.1 1000.4 0.0
26/05:30am 25.8 21.3 10.0 37 8.9 N 24 30 13 16 1001.7 1000.0 0.0
26/05:00am 26.5 21.9 9.8 35 9.4 N 24 35 13 19 1001.7 1000.0 0.0
26/04:30am 26.6 22.0 9.5 34 9.5 N 24 32 13 17 1001.4 999.7 0.0
26/04:00am 26.6 22.2 9.0 33 9.8 N 22 30 12 16 1001.5 999.8 0.0
26/03:30am 26.4 22.0 8.8 33 9.7 N 22 30 12 16 1001.6 999.9 0.0

Other formats

Comma delimited format used in spreadsheet applications
http://www.bom.gov.au/fwo/IDN60801/IDN60801.95722.axf

JavaScript Object Notation format (JSON) in row-major order
http://www.bom.gov.au/fwo/IDN60801/IDN60801.95722.json

Data quality

Most of these data are generated automatically and are frequently updated. Quality checks on data are not normally performed. It is possible for incorrect values to appear. Refer to information at About Latest Weather Observations and please check the disclaimer before using these data.